sensor_id;sensor_type;location;lat;lon;timestamp;P1;P2;P0
76043;PMS7003;64740;34.694;33.088;2024-02-14T00:04:53;48.6;38.5;24.4
76043;PMS7003;64740;34.694;33.088;2024-02-14T00:09:43;51.1;40.1;25.4
76043;PMS7003;64740;34.694;33.088;2024-02-14T00:14:35;49.9;39.3;24.9
76043;PMS7003;64740;34.694;33.088;2024-02-14T00:19:53;47.3;38.3;24.9
76043;PMS7003;64740;34.694;33.088;2024-02-14T00:24:53;48.8;39.7;25.1
76043;PMS7003;64740;34.694;33.088;2024-02-14T00:29:45;50.8;41.2;26
76043;PMS7003;64740;34.694;33.088;2024-02-14T00:34:23;51;40.2;25
76043;PMS7003;64740;34.694;33.088;2024-02-14T00:39:15;51.2;39.8;25
76043;PMS7003;64740;34.694;33.088;2024-02-14T00:44:15;49.1;38.3;24.1
76043;PMS7003;64740;34.694;33.088;2024-02-14T00:49:15;40.9;31.5;19.4
76043;PMS7003;64740;34.694;33.088;2024-02-14T00:54:15;47;37;22.7
76043;PMS7003;64740;34.694;33.088;2024-02-14T00:59:15;48;37.5;23.3
76043;PMS7003;64740;34.694;33.088;2024-02-14T01:04:39;48.5;38.7;24.7
76043;PMS7003;64740;34.694;33.088;2024-02-14T01:09:18;48.6;38.1;23.4
76043;PMS7003;64740;34.694;33.088;2024-02-14T01:14:53;47.5;37.5;23.6
76043;PMS7003;64740;34.694;33.088;2024-02-14T01:19:45;44.4;36;22.4
76043;PMS7003;64740;34.694;33.088;2024-02-14T01:24:17;44.4;35.6;22.9
76043;PMS7003;64740;34.694;33.088;2024-02-14T01:29:23;48.2;37.7;23.5
76043;PMS7003;64740;34.694;33.088;2024-02-14T01:34:39;43.6;35.3;22.1
76043;PMS7003;64740;34.694;33.088;2024-02-14T01:39:35;47.1;37;23.1
76043;PMS7003;64740;34.694;33.088;2024-02-14T01:44:29;45.7;35.1;22
76043;PMS7003;64740;34.694;33.088;2024-02-14T01:49:15;44.6;35.6;22.6
76043;PMS7003;64740;34.694;33.088;2024-02-14T01:54:45;43.6;35;22.2
76043;PMS7003;64740;34.694;33.088;2024-02-14T01:59:53;42.3;34.2;21.8
76043;PMS7003;64740;34.694;33.088;2024-02-14T02:04:27;41.4;33.3;20.9
76043;PMS7003;64740;34.694;33.088;2024-02-14T02:09:35;38.2;31.9;20.7
76043;PMS7003;64740;34.694;33.088;2024-02-14T02:14:24;38.3;32;20.5
76043;PMS7003;64740;34.694;33.088;2024-02-14T02:19:23;41.2;33.6;21.2
76043;PMS7003;64740;34.694;33.088;2024-02-14T02:24:15;37.9;31.5;20.4
76043;PMS7003;64740;34.694;33.088;2024-02-14T02:29:22;40.4;33.4;20.7
76043;PMS7003;64740;34.694;33.088;2024-02-14T02:34:52;41.2;33.4;21.2
76043;PMS7003;64740;34.694;33.088;2024-02-14T02:39:53;43.5;34.8;21.9
76043;PMS7003;64740;34.694;33.088;2024-02-14T02:44:31;44.6;36.1;22.8
76043;PMS7003;64740;34.694;33.088;2024-02-14T02:49:53;46.6;36.9;23.2
76043;PMS7003;64740;34.694;33.088;2024-02-14T02:54:45;46.3;37.3;23.5
76043;PMS7003;64740;34.694;33.088;2024-02-14T02:59:39;48.6;38.7;24.5
76043;PMS7003;64740;34.694;33.088;2024-02-14T03:04:15;47.6;38.1;23.5
76043;PMS7003;64740;34.694;33.088;2024-02-14T03:09:54;49.3;38.1;24.4
76043;PMS7003;64740;34.694;33.088;2024-02-14T03:14:44;47;37.8;23.9
76043;PMS7003;64740;34.694;33.088;2024-02-14T03:19:30;46.5;37.6;23.6
76043;PMS7003;64740;34.694;33.088;2024-02-14T03:24:15;44.3;35;20.8
76043;PMS7003;64740;34.694;33.088;2024-02-14T03:29:45;48.6;38.5;24.1
76043;PMS7003;64740;34.694;33.088;2024-02-14T03:34:53;45.3;36.3;22.8
76043;PMS7003;64740;34.694;33.088;2024-02-14T03:39:16;47.7;38;24
76043;PMS7003;64740;34.694;33.088;2024-02-14T03:44:43;47.3;37.1;23.7
76043;PMS7003;64740;34.694;33.088;2024-02-14T03:49:16;43.3;34.8;22.5
76043;PMS7003;64740;34.694;33.088;2024-02-14T03:54:15;45.5;35.9;22.8
76043;PMS7003;64740;34.694;33.088;2024-02-14T03:59:15;45.2;36.1;22.7
76043;PMS7003;64740;34.694;33.088;2024-02-14T04:04:16;46.1;36.6;22.5
76043;PMS7003;64740;34.694;33.088;2024-02-14T04:09:44;45.6;36.5;22.9
76043;PMS7003;64740;34.694;33.088;2024-02-14T04:14:45;45.1;36.1;22.4
76043;PMS7003;64740;34.694;33.088;2024-02-14T04:19:44;47;37.2;23.6
76043;PMS7003;64740;34.694;33.088;2024-02-14T04:24:52;44.9;35.4;22.3
76043;PMS7003;64740;34.694;33.088;2024-02-14T04:29:54;46.2;36.5;22.8
76043;PMS7003;64740;34.694;33.088;2024-02-14T04:34:24;45;36.2;23.1
76043;PMS7003;64740;34.694;33.088;2024-02-14T04:39:54;45.1;35.4;22.7
76043;PMS7003;64740;34.694;33.088;2024-02-14T04:44:54;46.7;37.1;22.9
76043;PMS7003;64740;34.694;33.088;2024-02-14T04:49:44;43.9;34.7;22.4
76043;PMS7003;64740;34.694;33.088;2024-02-14T04:54:16;43.3;35;21.8
76043;PMS7003;64740;34.694;33.088;2024-02-14T04:59:40;43.6;35.2;22.6
76043;PMS7003;64740;34.694;33.088;2024-02-14T05:04:46;42.1;34.3;22.1
76043;PMS7003;64740;34.694;33.088;2024-02-14T05:09:54;44.9;35.9;22.5
76043;PMS7003;64740;34.694;33.088;2024-02-14T05:14:44;43;35.2;22.2
76043;PMS7003;64740;34.694;33.088;2024-02-14T05:19:52;45.6;36.3;22.8
76043;PMS7003;64740;34.694;33.088;2024-02-14T05:24:28;44.4;35.3;22.5
76043;PMS7003;64740;34.694;33.088;2024-02-14T05:29:24;43.5;34.9;22.2
76043;PMS7003;64740;34.694;33.088;2024-02-14T05:34:24;42.4;34.8;22
76043;PMS7003;64740;34.694;33.088;2024-02-14T05:39:24;41.7;33.7;22.4
76043;PMS7003;64740;34.694;33.088;2024-02-14T05:44:16;42.1;34.2;22.1
76043;PMS7003;64740;34.694;33.088;2024-02-14T05:49:24;43.1;33.8;21.2
76043;PMS7003;64740;34.694;33.088;2024-02-14T05:54:54;43;34.5;22.3
76043;PMS7003;64740;34.694;33.088;2024-02-14T05:59:16;41.2;34.1;21.5
76043;PMS7003;64740;34.694;33.088;2024-02-14T06:04:52;41.6;33.9;21.4
76043;PMS7003;64740;34.694;33.088;2024-02-14T06:09:38;43.2;34.4;21.6
76043;PMS7003;64740;34.694;33.088;2024-02-14T06:14:54;42.3;34;21.1
76043;PMS7003;64740;34.694;33.088;2024-02-14T06:19:30;40;32.4;20.3
76043;PMS7003;64740;34.694;33.088;2024-02-14T06:24:18;39.3;32.4;20.4
76043;PMS7003;64740;34.694;33.088;2024-02-14T06:29:30;40.9;33.4;20.8
76043;PMS7003;64740;34.694;33.088;2024-02-14T06:34:18;37.1;31.6;20.1
76043;PMS7003;64740;34.694;33.088;2024-02-14T06:39:54;44.3;35.1;21.4
76043;PMS7003;64740;34.694;33.088;2024-02-14T06:44:38;44.1;34.4;21.1
76043;PMS7003;64740;34.694;33.088;2024-02-14T06:49:46;45.3;35.3;21.8
76043;PMS7003;64740;34.694;33.088;2024-02-14T06:54:54;44.8;34.9;21.2
76043;PMS7003;64740;34.694;33.088;2024-02-14T06:59:54;50.4;37.2;22.5
76043;PMS7003;64740;34.694;33.088;2024-02-14T07:04:22;43.6;34.2;20.9
76043;PMS7003;64740;34.694;33.088;2024-02-14T07:09:24;43.1;35;21.4
76043;PMS7003;64740;34.694;33.088;2024-02-14T07:14:16;38.7;30.3;17.5
76043;PMS7003;64740;34.694;33.088;2024-02-14T07:19:36;44.3;35.1;22.1
76043;PMS7003;64740;34.694;33.088;2024-02-14T07:24:16;38.1;31.4;19
76043;PMS7003;64740;34.694;33.088;2024-02-14T07:29:46;44.4;35;22.5
76043;PMS7003;64740;34.694;33.088;2024-02-14T07:34:16;44.1;34.6;21.3
76043;PMS7003;64740;34.694;33.088;2024-02-14T07:39:54;42.6;33.8;21.6
76043;PMS7003;64740;34.694;33.088;2024-02-14T07:44:24;41.4;34.2;21.5
76043;PMS7003;64740;34.694;33.088;2024-02-14T07:49:54;45.2;35.1;21.9
76043;PMS7003;64740;34.694;33.088;2024-02-14T07:54:16;37.8;31.4;19.6
76043;PMS7003;64740;34.694;33.088;2024-02-14T07:59:36;24.8;21.8;13.7
76043;PMS7003;64740;34.694;33.088;2024-02-14T08:04:16;24.2;20.3;12.4
76043;PMS7003;64740;34.694;33.088;2024-02-14T08:09:40;22.1;18.5;11.2
76043;PMS7003;64740;34.694;33.088;2024-02-14T08:14:54;17.4;13.9;8.1
76043;PMS7003;64740;34.694;33.088;2024-02-14T08:19:54;20.8;17.2;10.7
76043;PMS7003;64740;34.694;33.088;2024-02-14T08:24:36;16.5;12.9;8.2
76043;PMS7003;64740;34.694;33.088;2024-02-14T08:29:54;15.8;13.1;7.6
76043;PMS7003;64740;34.694;33.088;2024-02-14T08:34:54;13.3;10.6;6.7
76043;PMS7003;64740;34.694;33.088;2024-02-14T08:39:46;9.3;7.7;5
76043;PMS7003;64740;34.694;33.088;2024-02-14T08:44:36;10.8;9.1;5.2
76043;PMS7003;64740;34.694;33.088;2024-02-14T08:49:24;12.1;10.3;6.3
76043;PMS7003;64740;34.694;33.088;2024-02-14T08:54:16;10.6;9.1;5.5
76043;PMS7003;64740;34.694;33.088;2024-02-14T08:59:16;12.9;9.3;5.4
76043;PMS7003;64740;34.694;33.088;2024-02-14T09:04:17;10.4;8.7;5.1
76043;PMS7003;64740;34.694;33.088;2024-02-14T09:09:32;10.1;7.8;4.4
76043;PMS7003;64740;34.694;33.088;2024-02-14T09:14:26;8.8;6.7;4
76043;PMS7003;64740;34.694;33.088;2024-02-14T09:19:32;9.8;7.2;4.1
76043;PMS7003;64740;34.694;33.088;2024-02-14T09:24:54;10.2;8.1;4.6
76043;PMS7003;64740;34.694;33.088;2024-02-14T09:29:46;10.1;8.4;4.8
76043;PMS7003;64740;34.694;33.088;2024-02-14T09:34:38;10.8;8.6;4.6
76043;PMS7003;64740;34.694;33.088;2024-02-14T09:39:24;12;10.3;6.5
76043;PMS7003;64740;34.694;33.088;2024-02-14T09:44:18;9.8;8.3;4.8
76043;PMS7003;64740;34.694;33.088;2024-02-14T09:49:44;9.3;7.2;4.2
76043;PMS7003;64740;34.694;33.088;2024-02-14T09:54:24;10.4;8.3;4.7
76043;PMS7003;64740;34.694;33.088;2024-02-14T09:59:36;10.1;8.9;5.4
76043;PMS7003;64740;34.694;33.088;2024-02-14T10:04:46;9.5;7.9;4.9
76043;PMS7003;64740;34.694;33.088;2024-02-14T10:09:54;9.4;7.8;4.6
76043;PMS7003;64740;34.694;33.088;2024-02-14T10:14:24;9;7.7;4.4
76043;PMS7003;64740;34.694;33.088;2024-02-14T10:19:54;12.4;8.9;5.1
76043;PMS7003;64740;34.694;33.088;2024-02-14T10:24:16;9.5;7.8;4.8
76043;PMS7003;64740;34.694;33.088;2024-02-14T10:29:38;10.9;9.1;5.8
76043;PMS7003;64740;34.694;33.088;2024-02-14T10:34:28;12.1;10.6;6.3
76043;PMS7003;64740;34.694;33.088;2024-02-14T10:39:22;9.4;7.3;4.1
76043;PMS7003;64740;34.694;33.088;2024-02-14T10:44:24;8.9;6.6;3.8
76043;PMS7003;64740;34.694;33.088;2024-02-14T10:49:54;9.3;6.8;3.7
76043;PMS7003;64740;34.694;33.088;2024-02-14T10:54:48;7.7;5.9;3.2
76043;PMS7003;64740;34.694;33.088;2024-02-14T10:59:54;6.2;5;2.8
76043;PMS7003;64740;34.694;33.088;2024-02-14T11:04:54;6.4;5.3;2.8
76043;PMS7003;64740;34.694;33.088;2024-02-14T11:09:16;6.5;5.2;2.9
76043;PMS7003;64740;34.694;33.088;2024-02-14T11:14:56;7.3;5.4;3.1
76043;PMS7003;64740;34.694;33.088;2024-02-14T11:19:54;8.5;6;3.2
76043;PMS7003;64740;34.694;33.088;2024-02-14T11:24:54;6.4;4.6;2.4
76043;PMS7003;64740;34.694;33.088;2024-02-14T11:29:28;6.5;5.4;3
76043;PMS7003;64740;34.694;33.088;2024-02-14T11:34:16;7.4;6;3.2
76043;PMS7003;64740;34.694;33.088;2024-02-14T11:39:46;7.2;5.1;2.7
76043;PMS7003;64740;34.694;33.088;2024-02-14T11:44:54;5.4;4.2;2.1
76043;PMS7003;64740;34.694;33.088;2024-02-14T11:49:24;7.7;5.7;3.1
76043;PMS7003;64740;34.694;33.088;2024-02-14T11:54:45;7;5.1;3
76043;PMS7003;64740;34.694;33.088;2024-02-14T11:59:55;5.3;4.6;2.3
76043;PMS7003;64740;34.694;33.088;2024-02-14T12:04:16;5;4.1;2.2
76043;PMS7003;64740;34.694;33.088;2024-02-14T12:09:28;6.6;4.3;2.1
76043;PMS7003;64740;34.694;33.088;2024-02-14T12:14:26;5.7;4.3;2.1
76043;PMS7003;64740;34.694;33.088;2024-02-14T12:19:16;4.7;3.3;1.5
76043;PMS7003;64740;34.694;33.088;2024-02-14T12:24:55;5.9;4.3;1.8
76043;PMS7003;64740;34.694;33.088;2024-02-14T12:29:46;5.3;3.9;1.9
76043;PMS7003;64740;34.694;33.088;2024-02-14T12:34:55;4.7;3.8;2.2
76043;PMS7003;64740;34.694;33.088;2024-02-14T12:39:54;5.3;3.9;1.8
76043;PMS7003;64740;34.694;33.088;2024-02-14T12:44:32;5.2;4;1.9
76043;PMS7003;64740;34.694;33.088;2024-02-14T12:49:54;5.3;3.9;2.1
76043;PMS7003;64740;34.694;33.088;2024-02-14T12:54:46;5.6;4;2.2
76043;PMS7003;64740;34.694;33.088;2024-02-14T12:59:18;5.4;4.2;2.3
76043;PMS7003;64740;34.694;33.088;2024-02-14T13:04:24;5.5;4.2;2.3
76043;PMS7003;64740;34.694;33.088;2024-02-14T13:09:38;5.2;4.3;2.2
76043;PMS7003;64740;34.694;33.088;2024-02-14T13:14:46;5.1;4;2.2
76043;PMS7003;64740;34.694;33.088;2024-02-14T13:19:54;3.7;2.9;1.3
76043;PMS7003;64740;34.694;33.088;2024-02-14T13:24:36;4.5;3;1.6
76043;PMS7003;64740;34.694;33.088;2024-02-14T13:29:54;5.6;3.5;1.9
76043;PMS7003;64740;34.694;33.088;2024-02-14T13:34:36;4;3.1;1.4
76043;PMS7003;64740;34.694;33.088;2024-02-14T13:39:16;3.8;2.9;1.4
76043;PMS7003;64740;34.694;33.088;2024-02-14T13:44:28;2.6;2.4;1.2
76043;PMS7003;64740;34.694;33.088;2024-02-14T13:49:16;3.6;3.1;1.5
76043;PMS7003;64740;34.694;33.088;2024-02-14T13:54:28;5.6;4.9;2.9
76043;PMS7003;64740;34.694;33.088;2024-02-14T13:59:24;6.2;5.3;3
76043;PMS7003;64740;34.694;33.088;2024-02-14T14:04:46;3.9;3.3;1.7
76043;PMS7003;64740;34.694;33.088;2024-02-14T14:09:16;4;2.9;1.4
76043;PMS7003;64740;34.694;33.088;2024-02-14T14:14:54;4.3;3;1.6
76043;PMS7003;64740;34.694;33.088;2024-02-14T14:19:32;3.9;3.1;1.7
76043;PMS7003;64740;34.694;33.088;2024-02-14T14:24:54;4.1;3.5;1.8
76043;PMS7003;64740;34.694;33.088;2024-02-14T14:29:40;3.4;2.6;1.3
76043;PMS7003;64740;34.694;33.088;2024-02-14T14:34:48;4.2;3;1.5
76043;PMS7003;64740;34.694;33.088;2024-02-14T14:39:16;3.7;2.8;1.6
76043;PMS7003;64740;34.694;33.088;2024-02-14T14:44:40;4.6;3.7;1.6
76043;PMS7003;64740;34.694;33.088;2024-02-14T14:49:52;3.8;3;1.8
76043;PMS7003;64740;34.694;33.088;2024-02-14T14:54:18;4.1;3.2;1.8
76043;PMS7003;64740;34.694;33.088;2024-02-14T14:59:16;4.7;3.8;2
76043;PMS7003;64740;34.694;33.088;2024-02-14T15:04:46;4.8;3.9;2
76043;PMS7003;64740;34.694;33.088;2024-02-14T15:09:54;4.9;3.5;2
76043;PMS7003;64740;34.694;33.088;2024-02-14T15:14:46;4.9;3.4;2.1
76043;PMS7003;64740;34.694;33.088;2024-02-14T15:19:28;4.2;3.7;2.1
76043;PMS7003;64740;34.694;33.088;2024-02-14T15:24:24;5.7;4.3;2.4
76043;PMS7003;64740;34.694;33.088;2024-02-14T15:29:24;6.5;4.8;3
76043;PMS7003;64740;34.694;33.088;2024-02-14T15:34:32;6.3;4.8;2.8
76043;PMS7003;64740;34.694;33.088;2024-02-14T15:39:46;6.1;5.1;3.2
76043;PMS7003;64740;34.694;33.088;2024-02-14T15:44:32;7;5.8;3.3
76043;PMS7003;64740;34.694;33.088;2024-02-14T15:49:40;7.6;5.7;3.4
76043;PMS7003;64740;34.694;33.088;2024-02-14T15:54:32;5.8;4.9;2.9
76043;PMS7003;64740;34.694;33.088;2024-02-14T15:59:52;7.1;5.2;3.1
76043;PMS7003;64740;34.694;33.088;2024-02-14T16:04:46;6.7;5.1;3.1
76043;PMS7003;64740;34.694;33.088;2024-02-14T16:09:54;7.1;6;3.5
76043;PMS7003;64740;34.694;33.088;2024-02-14T16:14:28;7.4;6.2;3.9
76043;PMS7003;64740;34.694;33.088;2024-02-14T16:19:36;9.8;7.7;4.8
76043;PMS7003;64740;34.694;33.088;2024-02-14T16:24:50;11;9.6;5.7
76043;PMS7003;64740;34.694;33.088;2024-02-14T16:29:16;11.5;10.1;6.3
76043;PMS7003;64740;34.694;33.088;2024-02-14T16:34:34;11.7;9.6;5.9
76043;PMS7003;64740;34.694;33.088;2024-02-14T16:39:42;11.9;9.7;6.3
76043;PMS7003;64740;34.694;33.088;2024-02-14T16:44:52;10.9;8.7;4.9
76043;PMS7003;64740;34.694;33.088;2024-02-14T16:49:34;12.4;9.9;6.2
76043;PMS7003;64740;34.694;33.088;2024-02-14T16:54:24;11.6;8.7;4.9
76043;PMS7003;64740;34.694;33.088;2024-02-14T16:59:16;13.4;11.1;7.1
76043;PMS7003;64740;34.694;33.088;2024-02-14T17:04:16;15.7;14.2;8.8
76043;PMS7003;64740;34.694;33.088;2024-02-14T17:09:54;16.4;14.2;8.8
76043;PMS7003;64740;34.694;33.088;2024-02-14T17:14:52;17;14.1;9.2
76043;PMS7003;64740;34.694;33.088;2024-02-14T17:19:16;15.2;12.6;8.1
76043;PMS7003;64740;34.694;33.088;2024-02-14T17:24:52;15.8;13;8.3
76043;PMS7003;64740;34.694;33.088;2024-02-14T17:29:44;12.3;10;6.6
76043;PMS7003;64740;34.694;33.088;2024-02-14T17:34:40;5.8;5.4;3.1
76043;PMS7003;64740;34.694;33.088;2024-02-14T17:39:52;6.9;5.1;3.1
76043;PMS7003;64740;34.694;33.088;2024-02-14T17:44:32;6.3;4.5;2.5
76043;PMS7003;64740;34.694;33.088;2024-02-14T17:49:54;6.3;5;2.9
76043;PMS7003;64740;34.694;33.088;2024-02-14T17:54:54;5.9;5.4;3.5
76043;PMS7003;64740;34.694;33.088;2024-02-14T17:59:44;6.8;6;3.7
76043;PMS7003;64740;34.694;33.088;2024-02-14T18:04:16;7.2;5.7;3.9
76043;PMS7003;64740;34.694;33.088;2024-02-14T18:09:40;8;6.4;4
76043;PMS7003;64740;34.694;33.088;2024-02-14T18:14:46;8.8;7.1;4.4
76043;PMS7003;64740;34.694;33.088;2024-02-14T18:19:52;9.3;7.7;4.8
76043;PMS7003;64740;34.694;33.088;2024-02-14T18:24:28;10.1;8.8;5.4
76043;PMS7003;64740;34.694;33.088;2024-02-14T18:29:52;10.9;8.2;5.3
76043;PMS7003;64740;34.694;33.088;2024-02-14T18:34:34;13.2;11.1;6.9
76043;PMS7003;64740;34.694;33.088;2024-02-14T18:39:16;31.5;25.9;16
76043;PMS7003;64740;34.694;33.088;2024-02-14T18:44:16;23.2;20;12.1
76043;PMS7003;64740;34.694;33.088;2024-02-14T18:49:30;15.6;13.1;7.9
76043;PMS7003;64740;34.694;33.088;2024-02-14T18:54:24;11.4;9.4;5.5
76043;PMS7003;64740;34.694;33.088;2024-02-14T18:59:16;11.8;10;5.9
76043;PMS7003;64740;34.694;33.088;2024-02-14T19:04:38;11.2;8.8;5.8
76043;PMS7003;64740;34.694;33.088;2024-02-14T19:09:24;18.6;15.6;8.9
76043;PMS7003;64740;34.694;33.088;2024-02-14T19:14:54;17.1;14;8.7
76043;PMS7003;64740;34.694;33.088;2024-02-14T19:19:32;14.9;12.5;8
76043;PMS7003;64740;34.694;33.088;2024-02-14T19:24:54;18.6;15.2;9.3
76043;PMS7003;64740;34.694;33.088;2024-02-14T19:29:40;30.6;24.5;14.4
76043;PMS7003;64740;34.694;33.088;2024-02-14T19:34:26;22;17.9;10.8
76043;PMS7003;64740;34.694;33.088;2024-02-14T19:39:22;19.6;16.1;9.9
76043;PMS7003;64740;34.694;33.088;2024-02-14T19:44:40;15.9;12.7;7.8
76043;PMS7003;64740;34.694;33.088;2024-02-14T19:49:54;13.1;11.4;7.2
76043;PMS7003;64740;34.694;33.088;2024-02-14T19:54:44;10.9;9.5;5.8
76043;PMS7003;64740;34.694;33.088;2024-02-14T19:59:24;8;7.1;4.5
76043;PMS7003;64740;34.694;33.088;2024-02-14T20:09:54;6;4.8;2.8
76043;PMS7003;64740;34.694;33.088;2024-02-14T20:14:24;5.9;4.9;2.9
76043;PMS7003;64740;34.694;33.088;2024-02-14T20:19:16;6.1;4.7;2.8
76043;PMS7003;64740;34.694;33.088;2024-02-14T20:24:24;5.7;5.3;3.1
76043;PMS7003;64740;34.694;33.088;2024-02-14T20:29:46;6.1;4.6;3
76043;PMS7003;64740;34.694;33.088;2024-02-14T20:34:54;6.6;5.4;3.5
76043;PMS7003;64740;34.694;33.088;2024-02-14T20:39:44;7.2;5.8;3.7
76043;PMS7003;64740;34.694;33.088;2024-02-14T20:44:32;6.8;6;3.8
76043;PMS7003;64740;34.694;33.088;2024-02-14T20:49:54;6.1;5.1;3.2
76043;PMS7003;64740;34.694;33.088;2024-02-14T20:54:32;7.2;6.1;3.8
76043;PMS7003;64740;34.694;33.088;2024-02-14T20:59:54;7.6;6.9;4.1
76043;PMS7003;64740;34.694;33.088;2024-02-14T21:04:30;9.5;7.6;4.8
76043;PMS7003;64740;34.694;33.088;2024-02-14T21:09:18;10.5;8.7;5.4
76043;PMS7003;64740;34.694;33.088;2024-02-14T21:14:24;9.4;8;5
76043;PMS7003;64740;34.694;33.088;2024-02-14T21:19:54;8.8;7.1;5
76043;PMS7003;64740;34.694;33.088;2024-02-14T21:24:54;8.4;7.1;4.3
76043;PMS7003;64740;34.694;33.088;2024-02-14T21:29:54;7;6.6;4.3
76043;PMS7003;64740;34.694;33.088;2024-02-14T21:34:36;8.4;7.2;4.6
76043;PMS7003;64740;34.694;33.088;2024-02-14T21:39:54;7.8;6.2;3.9
76043;PMS7003;64740;34.694;33.088;2024-02-14T21:44:54;7.1;5.8;3.8
76043;PMS7003;64740;34.694;33.088;2024-02-14T21:49:46;7.5;5.7;3.6
76043;PMS7003;64740;34.694;33.088;2024-02-14T21:54:16;6.8;5.7;3.4
76043;PMS7003;64740;34.694;33.088;2024-02-14T21:59:24;7.7;6.5;4
76043;PMS7003;64740;34.694;33.088;2024-02-14T22:04:22;7;5.8;3.6
76043;PMS7003;64740;34.694;33.088;2024-02-14T22:09:16;7.2;6.1;3.7
76043;PMS7003;64740;34.694;33.088;2024-02-14T22:14:16;6.5;5.7;3.8
76043;PMS7003;64740;34.694;33.088;2024-02-14T22:19:38;7.4;6.6;4.2
76043;PMS7003;64740;34.694;33.088;2024-02-14T22:24:40;7.6;6.4;4.3
76043;PMS7003;64740;34.694;33.088;2024-02-14T22:29:32;8;6.9;4.1
76043;PMS7003;64740;34.694;33.088;2024-02-14T22:34:54;7.2;6;3.5
76043;PMS7003;64740;34.694;33.088;2024-02-14T22:39:46;7.1;5.7;3.4
76043;PMS7003;64740;34.694;33.088;2024-02-14T22:44:18;7.4;6.2;3.5
76043;PMS7003;64740;34.694;33.088;2024-02-14T22:49:16;7.5;6.6;4.1
76043;PMS7003;64740;34.694;33.088;2024-02-14T22:54:32;7.5;5.9;3.5
76043;PMS7003;64740;34.694;33.088;2024-02-14T22:59:38;6.8;5.7;3.2
76043;PMS7003;64740;34.694;33.088;2024-02-14T23:04:30;6;4.9;3.2
76043;PMS7003;64740;34.694;33.088;2024-02-14T23:09:16;6.3;5.7;3.6
76043;PMS7003;64740;34.694;33.088;2024-02-14T23:14:46;6.5;5.2;3.1
76043;PMS7003;64740;34.694;33.088;2024-02-14T23:19:54;6.3;5.2;3.3
76043;PMS7003;64740;34.694;33.088;2024-02-14T23:24:54;5.9;5.1;3.5
76043;PMS7003;64740;34.694;33.088;2024-02-14T23:29:44;5.8;5;3.1
76043;PMS7003;64740;34.694;33.088;2024-02-14T23:34:24;5.6;4.9;3
76043;PMS7003;64740;34.694;33.088;2024-02-14T23:39:24;4.9;4.4;2.8
76043;PMS7003;64740;34.694;33.088;2024-02-14T23:44:36;5.1;4.6;2.9
76043;PMS7003;64740;34.694;33.088;2024-02-14T23:49:16;7.2;6;3.6
76043;PMS7003;64740;34.694;33.088;2024-02-14T23:54:24;5.5;4.5;2.6
76043;PMS7003;64740;34.694;33.088;2024-02-14T23:59:24;6.7;5.6;3.6
